sensor_id;sensor_type;location;lat;lon;timestamp;P1;durP1;ratioP1;P2;durP2;ratioP2
11703;SDS011;5908;51.354;7.458;2023-11-19T00:01:33;3.03;;;2.47;;
11703;SDS011;5908;51.354;7.458;2023-11-19T00:04:00;2.80;;;2.28;;
11703;SDS011;5908;51.354;7.458;2023-11-19T00:06:26;5.50;;;4.25;;
11703;SDS011;5908;51.354;7.458;2023-11-19T00:08:53;2.88;;;1.95;;
11703;SDS011;5908;51.354;7.458;2023-11-19T00:11:20;1.95;;;1.55;;
11703;SDS011;5908;51.354;7.458;2023-11-19T00:13:47;5.10;;;3.90;;
11703;SDS011;5908;51.354;7.458;2023-11-19T00:16:15;3.67;;;2.95;;
11703;SDS011;5908;51.354;7.458;2023-11-19T00:18:42;4.75;;;3.67;;
11703;SDS011;5908;51.354;7.458;2023-11-19T00:21:09;3.00;;;2.20;;
11703;SDS011;5908;51.354;7.458;2023-11-19T00:23:36;2.57;;;2.13;;
11703;SDS011;5908;51.354;7.458;2023-11-19T00:26:03;2.95;;;2.38;;
11703;SDS011;5908;51.354;7.458;2023-11-19T00:28:31;1.90;;;1.50;;
11703;SDS011;5908;51.354;7.458;2023-11-19T00:30:58;2.80;;;2.25;;
11703;SDS011;5908;51.354;7.458;2023-11-19T00:33:26;2.40;;;1.90;;
11703;SDS011;5908;51.354;7.458;2023-11-19T00:35:53;2.33;;;1.83;;
11703;SDS011;5908;51.354;7.458;2023-11-19T00:38:20;2.47;;;2.25;;
11703;SDS011;5908;51.354;7.458;2023-11-19T00:40:47;6.33;;;4.33;;
11703;SDS011;5908;51.354;7.458;2023-11-19T00:43:14;3.00;;;2.70;;
11703;SDS011;5908;51.354;7.458;2023-11-19T00:45:41;994.72;;;920.17;;
11703;SDS011;5908;51.354;7.458;2023-11-19T00:48:08;966.75;;;893.78;;
11703;SDS011;5908;51.354;7.458;2023-11-19T00:50:36;961.17;;;888.35;;
11703;SDS011;5908;51.354;7.458;2023-11-19T00:53:03;965.25;;;892.58;;
11703;SDS011;5908;51.354;7.458;2023-11-19T00:55:29;971.42;;;898.22;;
11703;SDS011;5908;51.354;7.458;2023-11-19T00:57:57;988.50;;;914.42;;
11703;SDS011;5908;51.354;7.458;2023-11-19T01:00:23;980.80;;;907.28;;
11703;SDS011;5908;51.354;7.458;2023-11-19T01:02:52;1003.15;;;927.67;;
11703;SDS011;5908;51.354;7.458;2023-11-19T01:05:19;1002.47;;;927.15;;
11703;SDS011;5908;51.354;7.458;2023-11-19T01:07:51;1023.40;;;946.22;;
11703;SDS011;5908;51.354;7.458;2023-11-19T01:10:19;1042.88;;;964.08;;
11703;SDS011;5908;51.354;7.458;2023-11-19T01:12:46;1042.55;;;964.20;;
11703;SDS011;5908;51.354;7.458;2023-11-19T01:15:12;1043.25;;;964.65;;
11703;SDS011;5908;51.354;7.458;2023-11-19T01:17:39;1053.50;;;974.42;;
11703;SDS011;5908;51.354;7.458;2023-11-19T01:20:06;1040.45;;;961.72;;
11703;SDS011;5908;51.354;7.458;2023-11-19T01:22:37;1041.18;;;962.65;;
11703;SDS011;5908;51.354;7.458;2023-11-19T01:25:06;1045.65;;;967.00;;
11703;SDS011;5908;51.354;7.458;2023-11-19T01:27:33;1025.07;;;947.97;;
11703;SDS011;5908;51.354;7.458;2023-11-19T01:30:00;1020.10;;;943.35;;
11703;SDS011;5908;51.354;7.458;2023-11-19T01:32:28;1013.15;;;936.90;;
11703;SDS011;5908;51.354;7.458;2023-11-19T01:34:55;1005.13;;;929.33;;
11703;SDS011;5908;51.354;7.458;2023-11-19T01:37:22;1029.25;;;951.78;;
11703;SDS011;5908;51.354;7.458;2023-11-19T01:39:48;1093.78;;;999.90;;
11703;SDS011;5908;51.354;7.458;2023-11-19T01:42:16;1105.20;;;999.90;;
11703;SDS011;5908;51.354;7.458;2023-11-19T01:44:53;1093.55;;;999.90;;
11703;SDS011;5908;51.354;7.458;2023-11-19T01:47:23;1069.63;;;988.95;;
11703;SDS011;5908;51.354;7.458;2023-11-19T01:49:50;1038.85;;;960.95;;
11703;SDS011;5908;51.354;7.458;2023-11-19T01:52:17;1057.43;;;977.63;;
11703;SDS011;5908;51.354;7.458;2023-11-19T01:54:45;1052.07;;;972.90;;
11703;SDS011;5908;51.354;7.458;2023-11-19T01:57:12;1061.67;;;981.70;;
11703;SDS011;5908;51.354;7.458;2023-11-19T01:59:41;1093.57;;;999.90;;
11703;SDS011;5908;51.354;7.458;2023-11-19T02:02:08;1101.37;;;999.90;;
11703;SDS011;5908;51.354;7.458;2023-11-19T02:04:35;1092.78;;;999.90;;
11703;SDS011;5908;51.354;7.458;2023-11-19T02:07:03;1076.20;;;994.97;;
11703;SDS011;5908;51.354;7.458;2023-11-19T02:09:30;1075.50;;;994.27;;
11703;SDS011;5908;51.354;7.458;2023-11-19T02:11:56;1092.85;;;999.90;;
11703;SDS011;5908;51.354;7.458;2023-11-19T02:14:23;1084.28;;;999.90;;
11703;SDS011;5908;51.354;7.458;2023-11-19T02:16:53;1083.40;;;999.90;;
11703;SDS011;5908;51.354;7.458;2023-11-19T02:19:20;1080.68;;;998.75;;
11703;SDS011;5908;51.354;7.458;2023-11-19T02:21:46;1041.63;;;963.47;;
11703;SDS011;5908;51.354;7.458;2023-11-19T02:24:14;1020.92;;;943.67;;
11703;SDS011;5908;51.354;7.458;2023-11-19T02:26:47;1031.78;;;953.72;;
11703;SDS011;5908;51.354;7.458;2023-11-19T02:29:22;1037.20;;;958.67;;
11703;SDS011;5908;51.354;7.458;2023-11-19T02:31:49;1041.45;;;962.70;;
11703;SDS011;5908;51.354;7.458;2023-11-19T02:34:16;1072.20;;;991.10;;
11703;SDS011;5908;51.354;7.458;2023-11-19T02:36:43;1079.53;;;997.53;;
11703;SDS011;5908;51.354;7.458;2023-11-19T02:39:09;1079.20;;;997.17;;
11703;SDS011;5908;51.354;7.458;2023-11-19T02:41:37;1079.60;;;997.60;;
11703;SDS011;5908;51.354;7.458;2023-11-19T02:44:05;1071.73;;;989.63;;
11703;SDS011;5908;51.354;7.458;2023-11-19T02:46:33;1068.43;;;987.28;;
11703;SDS011;5908;51.354;7.458;2023-11-19T02:49:00;1063.03;;;983.03;;
11703;SDS011;5908;51.354;7.458;2023-11-19T02:51:26;1064.95;;;984.47;;
11703;SDS011;5908;51.354;7.458;2023-11-19T02:53:55;1080.63;;;998.58;;
11703;SDS011;5908;51.354;7.458;2023-11-19T02:56:24;1073.35;;;992.10;;
11703;SDS011;5908;51.354;7.458;2023-11-19T02:58:51;1062.65;;;981.83;;
11703;SDS011;5908;51.354;7.458;2023-11-19T03:01:22;1065.38;;;984.55;;
11703;SDS011;5908;51.354;7.458;2023-11-19T03:03:56;1057.78;;;977.47;;
11703;SDS011;5908;51.354;7.458;2023-11-19T03:06:23;1058.22;;;978.13;;
11703;SDS011;5908;51.354;7.458;2023-11-19T03:08:50;1055.70;;;975.47;;
11703;SDS011;5908;51.354;7.458;2023-11-19T03:11:17;1066.95;;;985.67;;
11703;SDS011;5908;51.354;7.458;2023-11-19T03:13:44;1065.35;;;985.28;;
11703;SDS011;5908;51.354;7.458;2023-11-19T03:16:11;1065.03;;;984.35;;
11703;SDS011;5908;51.354;7.458;2023-11-19T03:18:38;1075.03;;;993.75;;
11703;SDS011;5908;51.354;7.458;2023-11-19T03:21:07;1069.13;;;988.50;;
11703;SDS011;5908;51.354;7.458;2023-11-19T03:23:34;1038.40;;;960.38;;
11703;SDS011;5908;51.354;7.458;2023-11-19T03:26:01;1035.53;;;957.13;;
11703;SDS011;5908;51.354;7.458;2023-11-19T03:28:30;1038.57;;;959.85;;
11703;SDS011;5908;51.354;7.458;2023-11-19T03:30:57;1034.32;;;956.13;;
11703;SDS011;5908;51.354;7.458;2023-11-19T03:33:24;1024.70;;;947.35;;
11703;SDS011;5908;51.354;7.458;2023-11-19T03:35:50;1023.70;;;946.15;;
11703;SDS011;5908;51.354;7.458;2023-11-19T03:38:19;1023.85;;;946.88;;
11703;SDS011;5908;51.354;7.458;2023-11-19T03:40:45;1034.30;;;956.42;;
11703;SDS011;5908;51.354;7.458;2023-11-19T03:43:12;1044.38;;;965.60;;
11703;SDS011;5908;51.354;7.458;2023-11-19T03:45:39;1026.07;;;948.80;;
11703;SDS011;5908;51.354;7.458;2023-11-19T03:48:06;1037.25;;;959.00;;
11703;SDS011;5908;51.354;7.458;2023-11-19T03:50:32;1033.78;;;956.03;;
11703;SDS011;5908;51.354;7.458;2023-11-19T03:53:00;1032.60;;;954.50;;
11703;SDS011;5908;51.354;7.458;2023-11-19T03:55:29;1041.15;;;962.40;;
11703;SDS011;5908;51.354;7.458;2023-11-19T03:57:56;1071.43;;;990.95;;
11703;SDS011;5908;51.354;7.458;2023-11-19T04:00:23;1048.50;;;969.38;;
11703;SDS011;5908;51.354;7.458;2023-11-19T04:02:50;1055.88;;;975.90;;
11703;SDS011;5908;51.354;7.458;2023-11-19T04:05:16;1071.95;;;991.05;;
11703;SDS011;5908;51.354;7.458;2023-11-19T04:07:44;1069.80;;;988.70;;
11703;SDS011;5908;51.354;7.458;2023-11-19T04:10:10;1067.97;;;987.28;;
11703;SDS011;5908;51.354;7.458;2023-11-19T04:12:38;1075.18;;;993.83;;
11703;SDS011;5908;51.354;7.458;2023-11-19T04:15:06;1082.32;;;999.85;;
11703;SDS011;5908;51.354;7.458;2023-11-19T04:17:33;1064.85;;;984.22;;
11703;SDS011;5908;51.354;7.458;2023-11-19T04:20:00;1067.85;;;987.13;;
11703;SDS011;5908;51.354;7.458;2023-11-19T04:22:29;1060.63;;;980.28;;
11703;SDS011;5908;51.354;7.458;2023-11-19T04:24:56;1062.22;;;981.65;;
11703;SDS011;5908;51.354;7.458;2023-11-19T04:27:23;1056.50;;;976.55;;
11703;SDS011;5908;51.354;7.458;2023-11-19T04:29:51;1053.97;;;974.17;;
11703;SDS011;5908;51.354;7.458;2023-11-19T04:32:18;1058.10;;;977.40;;
11703;SDS011;5908;51.354;7.458;2023-11-19T04:34:46;1059.75;;;978.80;;
11703;SDS011;5908;51.354;7.458;2023-11-19T04:37:12;1069.22;;;987.75;;
11703;SDS011;5908;51.354;7.458;2023-11-19T04:39:41;1075.05;;;993.10;;
11703;SDS011;5908;51.354;7.458;2023-11-19T04:42:11;1063.37;;;982.53;;
11703;SDS011;5908;51.354;7.458;2023-11-19T04:44:37;1061.22;;;980.70;;
11703;SDS011;5908;51.354;7.458;2023-11-19T04:47:05;1050.30;;;970.78;;
11703;SDS011;5908;51.354;7.458;2023-11-19T04:49:32;1066.50;;;985.17;;
11703;SDS011;5908;51.354;7.458;2023-11-19T04:51:59;1068.18;;;986.47;;
11703;SDS011;5908;51.354;7.458;2023-11-19T04:54:26;1073.07;;;991.00;;
11703;SDS011;5908;51.354;7.458;2023-11-19T04:56:52;1073.45;;;991.15;;
11703;SDS011;5908;51.354;7.458;2023-11-19T04:59:19;1070.07;;;988.23;;
11703;SDS011;5908;51.354;7.458;2023-11-19T05:01:46;1064.80;;;982.28;;
11703;SDS011;5908;51.354;7.458;2023-11-19T05:04:14;1067.18;;;985.58;;
11703;SDS011;5908;51.354;7.458;2023-11-19T05:06:43;1060.45;;;979.40;;
11703;SDS011;5908;51.354;7.458;2023-11-19T05:09:10;1030.97;;;949.13;;
11703;SDS011;5908;51.354;7.458;2023-11-19T05:11:38;1053.35;;;969.20;;
11703;SDS011;5908;51.354;7.458;2023-11-19T05:14:05;1077.57;;;994.88;;
11703;SDS011;5908;51.354;7.458;2023-11-19T05:16:32;1093.75;;;999.90;;
11703;SDS011;5908;51.354;7.458;2023-11-19T05:18:58;1089.27;;;999.90;;
11703;SDS011;5908;51.354;7.458;2023-11-19T05:21:26;1073.68;;;991.45;;
11703;SDS011;5908;51.354;7.458;2023-11-19T05:23:52;1107.55;;;999.90;;
11703;SDS011;5908;51.354;7.458;2023-11-19T05:26:19;1097.00;;;999.90;;
11703;SDS011;5908;51.354;7.458;2023-11-19T05:28:47;1089.47;;;999.90;;
11703;SDS011;5908;51.354;7.458;2023-11-19T05:31:14;1065.25;;;983.85;;
11703;SDS011;5908;51.354;7.458;2023-11-19T05:33:42;1065.10;;;984.05;;
11703;SDS011;5908;51.354;7.458;2023-11-19T05:36:10;1062.97;;;982.60;;
11703;SDS011;5908;51.354;7.458;2023-11-19T05:38:39;1070.07;;;988.35;;
11703;SDS011;5908;51.354;7.458;2023-11-19T05:41:05;1104.15;;;999.90;;
11703;SDS011;5908;51.354;7.458;2023-11-19T05:43:32;1083.23;;;999.83;;
11703;SDS011;5908;51.354;7.458;2023-11-19T05:46:00;1081.03;;;998.20;;
11703;SDS011;5908;51.354;7.458;2023-11-19T05:48:28;1082.78;;;999.50;;
11703;SDS011;5908;51.354;7.458;2023-11-19T05:50:57;1083.05;;;999.75;;
11703;SDS011;5908;51.354;7.458;2023-11-19T05:53:23;1096.72;;;999.90;;
11703;SDS011;5908;51.354;7.458;2023-11-19T05:55:51;1114.07;;;999.90;;
11703;SDS011;5908;51.354;7.458;2023-11-19T05:58:22;1088.53;;;999.90;;
11703;SDS011;5908;51.354;7.458;2023-11-19T06:00:51;1078.63;;;993.40;;
11703;SDS011;5908;51.354;7.458;2023-11-19T06:03:17;1093.72;;;999.90;;
11703;SDS011;5908;51.354;7.458;2023-11-19T06:05:44;1108.32;;;999.90;;
11703;SDS011;5908;51.354;7.458;2023-11-19T06:08:11;1102.47;;;999.90;;
11703;SDS011;5908;51.354;7.458;2023-11-19T06:10:39;1108.45;;;999.90;;
11703;SDS011;5908;51.354;7.458;2023-11-19T06:13:07;1103.85;;;999.90;;
11703;SDS011;5908;51.354;7.458;2023-11-19T06:15:35;1096.45;;;999.90;;
11703;SDS011;5908;51.354;7.458;2023-11-19T06:18:02;1086.65;;;999.90;;
11703;SDS011;5908;51.354;7.458;2023-11-19T06:20:30;1092.00;;;999.90;;
11703;SDS011;5908;51.354;7.458;2023-11-19T06:22:57;1092.97;;;999.90;;
11703;SDS011;5908;51.354;7.458;2023-11-19T06:25:24;1091.88;;;999.90;;
11703;SDS011;5908;51.354;7.458;2023-11-19T06:27:51;1093.65;;;999.90;;
11703;SDS011;5908;51.354;7.458;2023-11-19T06:30:19;1100.57;;;999.90;;
11703;SDS011;5908;51.354;7.458;2023-11-19T06:32:46;1091.38;;;999.90;;
11703;SDS011;5908;51.354;7.458;2023-11-19T06:35:13;1100.32;;;999.90;;
11703;SDS011;5908;51.354;7.458;2023-11-19T06:37:41;1095.45;;;999.90;;
11703;SDS011;5908;51.354;7.458;2023-11-19T06:40:08;1101.90;;;999.90;;
11703;SDS011;5908;51.354;7.458;2023-11-19T06:42:37;943.80;;;873.35;;
11703;SDS011;5908;51.354;7.458;2023-11-19T06:45:04;1102.15;;;999.90;;
11703;SDS011;5908;51.354;7.458;2023-11-19T06:47:33;1095.10;;;999.90;;
11703;SDS011;5908;51.354;7.458;2023-11-19T06:50:00;1102.57;;;999.90;;
11703;SDS011;5908;51.354;7.458;2023-11-19T06:52:29;1104.07;;;999.90;;
11703;SDS011;5908;51.354;7.458;2023-11-19T06:54:56;1099.72;;;999.90;;
11703;SDS011;5908;51.354;7.458;2023-11-19T06:57:22;1033.47;;;956.40;;
11703;SDS011;5908;51.354;7.458;2023-11-19T06:59:53;886.45;;;819.55;;
11703;SDS011;5908;51.354;7.458;2023-11-19T07:02:20;1054.40;;;979.10;;
11703;SDS011;5908;51.354;7.458;2023-11-19T07:04:48;986.80;;;915.38;;
11703;SDS011;5908;51.354;7.458;2023-11-19T07:07:14;1092.95;;;999.90;;
11703;SDS011;5908;51.354;7.458;2023-11-19T07:09:41;1074.88;;;991.92;;
11703;SDS011;5908;51.354;7.458;2023-11-19T07:12:08;1083.70;;;999.90;;
11703;SDS011;5908;51.354;7.458;2023-11-19T07:14:35;1095.72;;;999.90;;
11703;SDS011;5908;51.354;7.458;2023-11-19T07:17:02;1085.97;;;999.90;;
11703;SDS011;5908;51.354;7.458;2023-11-19T07:19:30;1065.78;;;981.08;;
11703;SDS011;5908;51.354;7.458;2023-11-19T07:21:58;1061.40;;;976.20;;
11703;SDS011;5908;51.354;7.458;2023-11-19T07:24:26;1060.85;;;975.67;;
11703;SDS011;5908;51.354;7.458;2023-11-19T07:26:53;1056.40;;;971.30;;
11703;SDS011;5908;51.354;7.458;2023-11-19T07:29:20;1044.70;;;960.65;;
11703;SDS011;5908;51.354;7.458;2023-11-19T07:31:48;1034.57;;;957.72;;
11703;SDS011;5908;51.354;7.458;2023-11-19T07:34:14;1069.15;;;989.10;;
11703;SDS011;5908;51.354;7.458;2023-11-19T07:36:41;557.08;;;512.35;;
11703;SDS011;5908;51.354;7.458;2023-11-19T07:39:09;355.50;;;326.90;;
11703;SDS011;5908;51.354;7.458;2023-11-19T07:41:36;648.92;;;595.35;;
11703;SDS011;5908;51.354;7.458;2023-11-19T07:44:03;621.53;;;570.67;;
11703;SDS011;5908;51.354;7.458;2023-11-19T07:46:33;799.88;;;734.88;;
11703;SDS011;5908;51.354;7.458;2023-11-19T07:48:59;882.72;;;813.63;;
11703;SDS011;5908;51.354;7.458;2023-11-19T07:51:27;786.53;;;722.60;;
11703;SDS011;5908;51.354;7.458;2023-11-19T07:53:54;787.33;;;723.43;;
11703;SDS011;5908;51.354;7.458;2023-11-19T07:56:22;776.58;;;713.20;;
11703;SDS011;5908;51.354;7.458;2023-11-19T07:58:49;920.28;;;849.10;;
11703;SDS011;5908;51.354;7.458;2023-11-19T08:01:17;1067.20;;;987.75;;
11703;SDS011;5908;51.354;7.458;2023-11-19T08:03:43;1076.17;;;996.33;;
11703;SDS011;5908;51.354;7.458;2023-11-19T08:06:10;1011.35;;;934.58;;
11703;SDS011;5908;51.354;7.458;2023-11-19T08:08:37;1069.03;;;989.42;;
11703;SDS011;5908;51.354;7.458;2023-11-19T08:11:04;1065.28;;;983.97;;
11703;SDS011;5908;51.354;7.458;2023-11-19T08:13:33;1065.90;;;983.90;;
11703;SDS011;5908;51.354;7.458;2023-11-19T08:16:01;1058.13;;;974.35;;
11703;SDS011;5908;51.354;7.458;2023-11-19T08:18:28;1057.72;;;973.83;;
11703;SDS011;5908;51.354;7.458;2023-11-19T08:20:55;1048.88;;;964.42;;
11703;SDS011;5908;51.354;7.458;2023-11-19T08:23:23;1048.53;;;964.58;;
11703;SDS011;5908;51.354;7.458;2023-11-19T08:25:50;1055.57;;;970.77;;
11703;SDS011;5908;51.354;7.458;2023-11-19T08:28:18;1046.60;;;961.47;;
11703;SDS011;5908;51.354;7.458;2023-11-19T08:30:48;1043.43;;;958.42;;
11703;SDS011;5908;51.354;7.458;2023-11-19T08:33:15;1051.45;;;966.25;;
11703;SDS011;5908;51.354;7.458;2023-11-19T08:35:42;1045.97;;;960.92;;
11703;SDS011;5908;51.354;7.458;2023-11-19T08:38:08;1038.22;;;953.83;;
11703;SDS011;5908;51.354;7.458;2023-11-19T08:40:37;1033.88;;;950.42;;
11703;SDS011;5908;51.354;7.458;2023-11-19T08:43:04;1044.63;;;960.30;;
11703;SDS011;5908;51.354;7.458;2023-11-19T08:45:31;1053.53;;;969.25;;
11703;SDS011;5908;51.354;7.458;2023-11-19T08:47:59;1066.93;;;981.38;;
11703;SDS011;5908;51.354;7.458;2023-11-19T08:50:26;1066.57;;;981.20;;
11703;SDS011;5908;51.354;7.458;2023-11-19T08:52:53;1060.93;;;975.47;;
11703;SDS011;5908;51.354;7.458;2023-11-19T08:55:24;1049.28;;;964.95;;
11703;SDS011;5908;51.354;7.458;2023-11-19T08:57:53;1068.70;;;983.27;;
11703;SDS011;5908;51.354;7.458;2023-11-19T09:00:21;1073.82;;;987.60;;
11703;SDS011;5908;51.354;7.458;2023-11-19T09:02:48;1080.65;;;994.67;;
11703;SDS011;5908;51.354;7.458;2023-11-19T09:05:16;1083.93;;;998.00;;
11703;SDS011;5908;51.354;7.458;2023-11-19T09:07:43;1068.55;;;982.83;;
11703;SDS011;5908;51.354;7.458;2023-11-19T09:10:10;1079.25;;;992.83;;
11703;SDS011;5908;51.354;7.458;2023-11-19T09:12:39;1063.88;;;977.60;;
11703;SDS011;5908;51.354;7.458;2023-11-19T09:15:07;1068.05;;;981.95;;
11703;SDS011;5908;51.354;7.458;2023-11-19T09:17:36;1072.60;;;985.58;;
11703;SDS011;5908;51.354;7.458;2023-11-19T09:20:03;1054.22;;;969.58;;
11703;SDS011;5908;51.354;7.458;2023-11-19T09:22:32;1048.05;;;964.28;;
11703;SDS011;5908;51.354;7.458;2023-11-19T09:24:58;972.45;;;890.60;;
11703;SDS011;5908;51.354;7.458;2023-11-19T09:27:25;990.35;;;907.63;;
11703;SDS011;5908;51.354;7.458;2023-11-19T09:29:52;968.97;;;888.22;;
11703;SDS011;5908;51.354;7.458;2023-11-19T09:32:23;970.30;;;889.60;;
11703;SDS011;5908;51.354;7.458;2023-11-19T09:34:50;1047.55;;;963.17;;
11703;SDS011;5908;51.354;7.458;2023-11-19T09:37:17;1003.88;;;920.78;;
11703;SDS011;5908;51.354;7.458;2023-11-19T09:39:46;999.63;;;916.63;;
11703;SDS011;5908;51.354;7.458;2023-11-19T09:42:13;1004.47;;;921.25;;
11703;SDS011;5908;51.354;7.458;2023-11-19T09:44:44;874.58;;;804.75;;
11703;SDS011;5908;51.354;7.458;2023-11-19T09:47:13;976.03;;;896.65;;
11703;SDS011;5908;51.354;7.458;2023-11-19T09:49:41;994.17;;;910.55;;
11703;SDS011;5908;51.354;7.458;2023-11-19T09:52:08;986.78;;;904.20;;
11703;SDS011;5908;51.354;7.458;2023-11-19T09:54:35;1006.05;;;922.72;;
11703;SDS011;5908;51.354;7.458;2023-11-19T09:57:05;1007.00;;;923.33;;
11703;SDS011;5908;51.354;7.458;2023-11-19T09:59:36;1038.20;;;953.03;;
11703;SDS011;5908;51.354;7.458;2023-11-19T10:02:04;1035.70;;;949.67;;
11703;SDS011;5908;51.354;7.458;2023-11-19T10:04:32;1022.78;;;937.88;;
11703;SDS011;5908;51.354;7.458;2023-11-19T10:07:02;1025.43;;;940.85;;
11703;SDS011;5908;51.354;7.458;2023-11-19T10:09:30;1010.47;;;925.00;;
11703;SDS011;5908;51.354;7.458;2023-11-19T10:11:56;1042.20;;;956.60;;
11703;SDS011;5908;51.354;7.458;2023-11-19T10:14:25;1066.65;;;980.80;;
11703;SDS011;5908;51.354;7.458;2023-11-19T10:16:52;1064.80;;;979.05;;
11703;SDS011;5908;51.354;7.458;2023-11-19T10:19:21;1075.03;;;987.65;;
11703;SDS011;5908;51.354;7.458;2023-11-19T10:21:48;1041.70;;;955.60;;
11703;SDS011;5908;51.354;7.458;2023-11-19T10:24:16;1053.03;;;966.72;;
11703;SDS011;5908;51.354;7.458;2023-11-19T10:26:42;1023.90;;;939.22;;
11703;SDS011;5908;51.354;7.458;2023-11-19T10:29:10;1006.63;;;923.00;;
11703;SDS011;5908;51.354;7.458;2023-11-19T10:31:41;993.42;;;910.70;;
11703;SDS011;5908;51.354;7.458;2023-11-19T10:34:24;1011.83;;;927.53;;
11703;SDS011;5908;51.354;7.458;2023-11-19T10:36:52;1020.58;;;935.97;;
11703;SDS011;5908;51.354;7.458;2023-11-19T10:39:18;1042.47;;;956.78;;
11703;SDS011;5908;51.354;7.458;2023-11-19T10:41:48;1047.40;;;961.50;;
11703;SDS011;5908;51.354;7.458;2023-11-19T10:44:30;1024.38;;;939.88;;
11703;SDS011;5908;51.354;7.458;2023-11-19T10:47:00;1013.97;;;929.80;;
11703;SDS011;5908;51.354;7.458;2023-11-19T10:49:26;1062.88;;;976.17;;
11703;SDS011;5908;51.354;7.458;2023-11-19T10:51:53;1046.77;;;961.07;;
11703;SDS011;5908;51.354;7.458;2023-11-19T10:54:23;1033.28;;;948.55;;
11703;SDS011;5908;51.354;7.458;2023-11-19T10:56:53;1047.18;;;961.42;;
11703;SDS011;5908;51.354;7.458;2023-11-19T10:59:21;1042.05;;;956.00;;
11703;SDS011;5908;51.354;7.458;2023-11-19T11:01:51;1046.40;;;960.13;;
11703;SDS011;5908;51.354;7.458;2023-11-19T11:04:23;1052.57;;;966.35;;
11703;SDS011;5908;51.354;7.458;2023-11-19T11:06:51;1054.43;;;968.10;;
11703;SDS011;5908;51.354;7.458;2023-11-19T11:09:20;1049.63;;;963.57;;
11703;SDS011;5908;51.354;7.458;2023-11-19T11:11:48;1011.97;;;928.08;;
11703;SDS011;5908;51.354;7.458;2023-11-19T11:14:17;1036.65;;;951.08;;
11703;SDS011;5908;51.354;7.458;2023-11-19T11:16:46;1049.90;;;963.63;;
11703;SDS011;5908;51.354;7.458;2023-11-19T11:19:15;1072.13;;;985.40;;
11703;SDS011;5908;51.354;7.458;2023-11-19T11:21:45;1068.88;;;982.10;;
11703;SDS011;5908;51.354;7.458;2023-11-19T11:24:20;1058.20;;;972.10;;
11703;SDS011;5908;51.354;7.458;2023-11-19T11:27:01;1009.60;;;926.67;;
11703;SDS011;5908;51.354;7.458;2023-11-19T11:29:41;1012.25;;;928.88;;
11703;SDS011;5908;51.354;7.458;2023-11-19T11:32:16;1071.78;;;987.15;;
11703;SDS011;5908;51.354;7.458;2023-11-19T11:34:58;1078.72;;;993.70;;
11703;SDS011;5908;51.354;7.458;2023-11-19T11:37:36;1110.90;;;999.90;;
11703;SDS011;5908;51.354;7.458;2023-11-19T11:40:09;1106.00;;;999.90;;
11703;SDS011;5908;51.354;7.458;2023-11-19T11:42:41;1124.03;;;999.90;;
11703;SDS011;5908;51.354;7.458;2023-11-19T11:45:08;1122.03;;;999.90;;
11703;SDS011;5908;51.354;7.458;2023-11-19T11:50:32;1097.45;;;999.90;;
11703;SDS011;5908;51.354;7.458;2023-11-19T11:53:15;1081.07;;;995.67;;
11703;SDS011;5908;51.354;7.458;2023-11-19T11:55:52;1100.72;;;999.90;;
11703;SDS011;5908;51.354;7.458;2023-11-19T11:58:21;1082.75;;;998.25;;
11703;SDS011;5908;51.354;7.458;2023-11-19T12:00:52;1035.07;;;954.63;;
11703;SDS011;5908;51.354;7.458;2023-11-19T12:03:20;945.83;;;871.67;;
11703;SDS011;5908;51.354;7.458;2023-11-19T12:05:48;858.33;;;789.53;;
11703;SDS011;5908;51.354;7.458;2023-11-19T12:08:18;918.25;;;845.85;;
11703;SDS011;5908;51.354;7.458;2023-11-19T12:10:46;725.83;;;666.88;;
11703;SDS011;5908;51.354;7.458;2023-11-19T12:13:15;1086.30;;;999.90;;
11703;SDS011;5908;51.354;7.458;2023-11-19T12:18:34;1074.82;;;994.63;;
11703;SDS011;5908;51.354;7.458;2023-11-19T12:21:01;1112.65;;;999.90;;
11703;SDS011;5908;51.354;7.458;2023-11-19T12:23:32;1110.05;;;999.90;;
11703;SDS011;5908;51.354;7.458;2023-11-19T12:26:01;1118.55;;;999.90;;
11703;SDS011;5908;51.354;7.458;2023-11-19T12:28:28;1113.80;;;999.90;;
11703;SDS011;5908;51.354;7.458;2023-11-19T12:31:07;1117.00;;;999.90;;
11703;SDS011;5908;51.354;7.458;2023-11-19T12:33:35;1117.47;;;999.90;;
11703;SDS011;5908;51.354;7.458;2023-11-19T12:36:03;1103.97;;;999.90;;
11703;SDS011;5908;51.354;7.458;2023-11-19T12:38:32;1098.87;;;999.90;;
11703;SDS011;5908;51.354;7.458;2023-11-19T12:41:02;1106.33;;;999.90;;
11703;SDS011;5908;51.354;7.458;2023-11-19T12:43:29;1107.07;;;999.90;;
11703;SDS011;5908;51.354;7.458;2023-11-19T12:45:56;1107.40;;;999.90;;
11703;SDS011;5908;51.354;7.458;2023-11-19T12:48:23;1111.60;;;999.90;;
11703;SDS011;5908;51.354;7.458;2023-11-19T12:50:50;1117.35;;;999.90;;
11703;SDS011;5908;51.354;7.458;2023-11-19T12:53:18;1123.28;;;999.90;;
11703;SDS011;5908;51.354;7.458;2023-11-19T12:55:46;1026.03;;;946.17;;
11703;SDS011;5908;51.354;7.458;2023-11-19T12:58:28;1118.13;;;999.90;;
11703;SDS011;5908;51.354;7.458;2023-11-19T13:00:59;1100.13;;;999.90;;
11703;SDS011;5908;51.354;7.458;2023-11-19T13:03:29;1126.78;;;999.90;;
11703;SDS011;5908;51.354;7.458;2023-11-19T13:06:03;1123.15;;;999.90;;
11703;SDS011;5908;51.354;7.458;2023-11-19T13:08:36;1121.55;;;999.90;;
11703;SDS011;5908;51.354;7.458;2023-11-19T13:11:05;1117.80;;;999.90;;
11703;SDS011;5908;51.354;7.458;2023-11-19T13:13:33;1111.35;;;999.90;;
11703;SDS011;5908;51.354;7.458;2023-11-19T13:16:19;1115.80;;;999.90;;
11703;SDS011;5908;51.354;7.458;2023-11-19T13:18:47;1108.15;;;999.90;;
11703;SDS011;5908;51.354;7.458;2023-11-19T13:21:13;1098.68;;;999.90;;
11703;SDS011;5908;51.354;7.458;2023-11-19T13:23:40;1102.05;;;999.90;;
11703;SDS011;5908;51.354;7.458;2023-11-19T13:26:08;1064.00;;;978.00;;
11703;SDS011;5908;51.354;7.458;2023-11-19T13:28:35;760.00;;;698.42;;
11703;SDS011;5908;51.354;7.458;2023-11-19T13:31:02;824.65;;;758.28;;
11703;SDS011;5908;51.354;7.458;2023-11-19T13:33:29;816.47;;;750.67;;
11703;SDS011;5908;51.354;7.458;2023-11-19T13:35:56;637.13;;;586.05;;
11703;SDS011;5908;51.354;7.458;2023-11-19T13:38:23;878.35;;;808.78;;
11703;SDS011;5908;51.354;7.458;2023-11-19T13:40:50;1017.50;;;940.38;;
11703;SDS011;5908;51.354;7.458;2023-11-19T13:43:18;1031.55;;;952.13;;
11703;SDS011;5908;51.354;7.458;2023-11-19T13:45:45;813.85;;;747.95;;
11703;SDS011;5908;51.354;7.458;2023-11-19T13:48:12;736.75;;;676.75;;
11703;SDS011;5908;51.354;7.458;2023-11-19T13:50:38;920.20;;;848.70;;
11703;SDS011;5908;51.354;7.458;2023-11-19T13:53:05;995.55;;;919.58;;
11703;SDS011;5908;51.354;7.458;2023-11-19T13:55:32;1023.72;;;945.92;;
11703;SDS011;5908;51.354;7.458;2023-11-19T13:57:59;956.63;;;883.33;;
11703;SDS011;5908;51.354;7.458;2023-11-19T14:00:27;963.85;;;890.10;;
11703;SDS011;5908;51.354;7.458;2023-11-19T14:02:53;876.78;;;808.03;;
11703;SDS011;5908;51.354;7.458;2023-11-19T14:05:20;677.70;;;622.83;;
11703;SDS011;5908;51.354;7.458;2023-11-19T14:07:48;711.07;;;652.83;;
11703;SDS011;5908;51.354;7.458;2023-11-19T14:10:16;747.88;;;689.33;;
11703;SDS011;5908;51.354;7.458;2023-11-19T14:12:43;904.38;;;834.13;;